カラチ の空港の天気 - METARとTAF

ジンナー国際空港(カラチ) ( OPKC / KHI ) - パキスタン Karachi
飛行場実況気象(Metar)
観測時間08/17 16:30 PKT (08/17 11:30 UTC)
風向・風速西南西 6m/s
視程6000m
天気現象
全天の4割程度の雲 雲底高度 610m
全天の8割程度の雲 雲底高度 910m
気温31℃
湿度62%
気圧1000hPa
METAROPKC 171130Z 25011KT 6000 SCT020 BKN030 31/23 Q1000 NOSIG
過去の天気等 Google飛行場航空写真 Wunderground天気予報

過去48時間のMETAR

飛行場予報(TAF)
発表時間: 8/17 15:00 PKT (8/17 10:00 UTC)
予報対象時間: 17日17時 PKT ~ 18日23時 PKT
風向・風速西南西 5m/s
視程5000m
天気現象
全天の4割程度の雲 雲底高度 610m
全天の8割程度の雲 雲底高度 910m
18日4時 PKT ~ 18日8時 PKT に一時的に
風向・風速西 3m/s
視程3000m
天気現象霧雨
全天の4割程度の雲 雲底高度 610m
全天の8割程度の雲 雲底高度 760m
18日12時 PKT から
風向・風速西南西 5m/s 瞬間風速 10m/s
視程6000m
全天の8割程度の雲 雲底高度 910m
TAF OPKC 171000Z 1712/1818 24010KT 5000 FU SCT020 BKN030
TEMPO 1723/1803 26006KT 3000 DZ SCT020 BKN025
FM180700 24010G20KT 6000 BKN030